Time;durP1;ratioP1;P1;durP2;ratioP2;P2;SDS_P1;SDS_P2;PMS_P1;PMS_P2;Temp;Humidity;BMP_temperature;BMP_pressure;BME280_temperature;BME280_humidity;BME280_pressure;Samples;Min_cycle;Max_cycle;Signal;HPM_P1;HPM_P2
2023/08/03 00:00:32;;;;;;;10.65;7.00;;;;;;;;;;5011795;28;20549;-86
2023/08/03 00:02:58;;;;;;;8.52;6.80;;;;;;;;;;5013066;28;20041;-86
2023/08/03 00:05:24;;;;;;;10.88;7.05;;;;;;;;;;5011322;28;20033;-86
2023/08/03 00:07:49;;;;;;;8.18;6.78;;;;;;;;;;5011426;28;20034;-86
2023/08/03 00:10:15;;;;;;;10.55;7.05;;;;;;;;;;5028100;28;20172;-86
2023/08/03 00:12:41;;;;;;;8.27;7.07;;;;;;;;;;4992062;28;20058;-87
2023/08/03 00:15:06;;;;;;;10.20;6.18;;;;;;;;;;5011258;28;20516;-86
2023/08/03 00:17:32;;;;;;;9.65;5.82;;;;;;;;;;5011306;28;20044;-86
2023/08/03 00:19:59;;;;;;;6.60;5.25;;;;;;;;;;5004932;28;20455;-87
2023/08/03 00:22:25;;;;;;;6.50;5.57;;;;;;;;;;5003276;28;20120;-87
2023/08/03 00:24:50;;;;;;;7.82;5.60;;;;;;;;;;5005501;28;20438;-86
2023/08/03 00:27:16;;;;;;;6.68;5.78;;;;;;;;;;4986968;28;20049;-87
2023/08/03 00:29:41;;;;;;;10.45;5.95;;;;;;;;;;5007739;28;20044;-86
2023/08/03 00:32:07;;;;;;;7.10;5.63;;;;;;;;;;4991337;28;20045;-86
2023/08/03 00:34:33;;;;;;;7.63;5.60;;;;;;;;;;5002118;28;20017;-86
2023/08/03 00:36:58;;;;;;;8.13;5.45;;;;;;;;;;5027806;28;20046;-86
2023/08/03 00:39:24;;;;;;;6.55;5.88;;;;;;;;;;4993082;28;20563;-86
2023/08/03 00:41:50;;;;;;;6.78;5.93;;;;;;;;;;4995546;28;20061;-85
2023/08/03 00:44:15;;;;;;;7.00;5.95;;;;;;;;;;4992218;28;20089;-85
2023/08/03 00:46:41;;;;;;;6.75;5.43;;;;;;;;;;5007790;28;20061;-86
2023/08/03 00:49:07;;;;;;;8.48;5.57;;;;;;;;;;4994702;28;20025;-86
2023/08/03 00:51:33;;;;;;;6.68;5.95;;;;;;;;;;5027527;28;20065;-86
2023/08/03 00:53:59;;;;;;;7.60;5.50;;;;;;;;;;5011215;28;20535;-85
2023/08/03 00:56:24;;;;;;;8.55;5.50;;;;;;;;;;5012362;28;20133;-86
2023/08/03 00:58:50;;;;;;;6.47;5.70;;;;;;;;;;5011037;28;20057;-86
2023/08/03 01:01:15;;;;;;;8.90;5.53;;;;;;;;;;5010198;28;20036;-86
2023/08/03 01:03:41;;;;;;;8.63;5.80;;;;;;;;;;5010685;28;20026;-86
2023/08/03 01:06:06;;;;;;;7.75;5.97;;;;;;;;;;5010831;28;20042;-86
2023/08/03 01:08:32;;;;;;;8.95;6.20;;;;;;;;;;5010794;28;20513;-86
2023/08/03 01:10:57;;;;;;;9.02;6.15;;;;;;;;;;5011242;28;20412;-86
2023/08/03 01:13:23;;;;;;;6.78;6.03;;;;;;;;;;5027050;28;20060;-86
2023/08/03 01:15:48;;;;;;;7.45;6.05;;;;;;;;;;5030391;28;20044;-87
2023/08/03 01:18:14;;;;;;;7.38;5.70;;;;;;;;;;5030779;28;20034;-87
2023/08/03 01:20:39;;;;;;;8.45;6.20;;;;;;;;;;5014547;28;20041;-86
2023/08/03 01:23:05;;;;;;;8.13;5.85;;;;;;;;;;5010896;28;20022;-86
2023/08/03 01:25:31;;;;;;;7.28;5.90;;;;;;;;;;4998010;28;20041;-87
2023/08/03 01:27:57;;;;;;;7.22;6.20;;;;;;;;;;5015607;28;20111;-86
2023/08/03 01:30:22;;;;;;;8.20;6.20;;;;;;;;;;5011485;28;20492;-86
2023/08/03 01:32:48;;;;;;;7.10;5.80;;;;;;;;;;4996357;28;20069;-85
2023/08/03 01:35:15;;;;;;;7.07;6.05;;;;;;;;;;4994610;28;20039;-86
2023/08/03 01:37:41;;;;;;;7.57;5.95;;;;;;;;;;5014090;28;20471;-86
2023/08/03 01:40:06;;;;;;;6.97;5.70;;;;;;;;;;5014186;28;20042;-86
2023/08/03 01:42:32;;;;;;;6.30;5.70;;;;;;;;;;4997126;28;20037;-85
2023/08/03 01:44:58;;;;;;;6.45;5.72;;;;;;;;;;5014139;28;20045;-85
2023/08/03 01:47:23;;;;;;;7.53;5.85;;;;;;;;;;5013650;28;20018;-86
2023/08/03 01:49:49;;;;;;;6.60;5.43;;;;;;;;;;4978325;28;20038;-86
2023/08/03 01:52:14;;;;;;;7.22;5.95;;;;;;;;;;5013973;28;20052;-86
2023/08/03 01:54:40;;;;;;;6.57;5.78;;;;;;;;;;4998010;28;20022;-87
2023/08/03 01:57:05;;;;;;;6.47;5.57;;;;;;;;;;4995695;28;20022;-86
2023/08/03 01:59:31;;;;;;;7.07;5.50;;;;;;;;;;4997953;28;20049;-86
2023/08/03 02:01:56;;;;;;;8.70;5.90;;;;;;;;;;5013889;28;20048;-86
2023/08/03 02:04:22;;;;;;;6.47;5.68;;;;;;;;;;5015254;28;20033;-85
2023/08/03 02:06:51;;;;;;;7.63;5.78;;;;;;;;;;4996968;28;20017;-86
2023/08/03 02:09:17;;;;;;;8.13;5.40;;;;;;;;;;5013641;28;20120;-86
2023/08/03 02:11:42;;;;;;;8.88;5.47;;;;;;;;;;4994818;28;20429;-86
2023/08/03 02:14:08;;;;;;;9.18;5.60;;;;;;;;;;4997294;28;20054;-86
2023/08/03 02:16:33;;;;;;;7.45;5.22;;;;;;;;;;5013245;28;20076;-86
2023/08/03 02:18:59;;;;;;;7.45;5.90;;;;;;;;;;4997175;28;20084;-85
2023/08/03 02:21:24;;;;;;;8.90;5.07;;;;;;;;;;4996033;28;20088;-86
2023/08/03 02:23:50;;;;;;;9.60;5.88;;;;;;;;;;5026247;28;20045;-86
2023/08/03 02:26:15;;;;;;;9.50;5.75;;;;;;;;;;5028556;28;20022;-86
2023/08/03 02:28:41;;;;;;;8.98;6.13;;;;;;;;;;5014272;28;20037;-86
2023/08/03 02:31:07;;;;;;;9.68;5.63;;;;;;;;;;5012775;28;20033;-86
2023/08/03 02:33:40;;;;;;;6.72;5.50;;;;;;;;;;5008929;28;20393;-86
2023/08/03 02:36:05;;;;;;;6.80;5.20;;;;;;;;;;4994304;28;20030;-86
2023/08/03 02:38:32;;;;;;;6.43;5.78;;;;;;;;;;5004669;28;20355;-86
2023/08/03 02:40:58;;;;;;;6.10;5.30;;;;;;;;;;4996163;28;20124;-87
2023/08/03 02:43:29;;;;;;;9.13;6.07;;;;;;;;;;5003402;28;20018;-85
2023/08/03 02:45:55;;;;;;;7.78;5.10;;;;;;;;;;5008999;28;20032;-86
2023/08/03 02:48:21;;;;;;;6.78;6.07;;;;;;;;;;5013002;28;20030;-86
2023/08/03 02:50:51;;;;;;;6.68;5.85;;;;;;;;;;4996176;28;20559;-86
2023/08/03 02:53:16;;;;;;;6.65;5.65;;;;;;;;;;4996272;28;20166;-85
2023/08/03 02:55:45;;;;;;;8.15;6.22;;;;;;;;;;4999535;28;20037;-86
2023/08/03 02:58:10;;;;;;;6.40;5.70;;;;;;;;;;4996582;28;20029;-86
2023/08/03 03:00:36;;;;;;;7.15;5.80;;;;;;;;;;5013685;28;20048;-86
2023/08/03 03:03:02;;;;;;;7.50;5.95;;;;;;;;;;4996210;28;20041;-86
2023/08/03 03:05:36;;;;;;;7.38;5.40;;;;;;;;;;4996860;28;20492;-86
2023/08/03 03:08:01;;;;;;;7.80;5.68;;;;;;;;;;5019127;28;20041;-86
2023/08/03 03:10:27;;;;;;;8.02;5.82;;;;;;;;;;5010404;28;20446;-86
2023/08/03 03:12:52;;;;;;;6.70;4.88;;;;;;;;;;4995586;28;20145;-86
2023/08/03 03:15:18;;;;;;;8.13;5.53;;;;;;;;;;5012642;28;20038;-86
2023/08/03 03:17:43;;;;;;;7.45;5.80;;;;;;;;;;5012019;28;20041;-86
2023/08/03 03:20:10;;;;;;;6.90;5.32;;;;;;;;;;4995702;28;20029;-85
2023/08/03 03:22:36;;;;;;;7.18;5.43;;;;;;;;;;5011869;28;20034;-85
2023/08/03 03:25:02;;;;;;;8.48;5.97;;;;;;;;;;5028840;28;20108;-86
2023/08/03 03:27:28;;;;;;;6.00;5.40;;;;;;;;;;5011452;28;20037;-86
2023/08/03 03:29:54;;;;;;;6.70;5.57;;;;;;;;;;5012622;28;20477;-86
2023/08/03 03:32:20;;;;;;;7.25;5.22;;;;;;;;;;5011597;28;20037;-86
2023/08/03 03:34:47;;;;;;;8.07;5.35;;;;;;;;;;5027631;28;20030;-86
2023/08/03 03:37:14;;;;;;;11.77;5.25;;;;;;;;;;5011255;28;20042;-86
2023/08/03 03:39:40;;;;;;;9.40;5.07;;;;;;;;;;4994735;28;20521;-87
2023/08/03 03:42:11;;;;;;;6.03;4.60;;;;;;;;;;4995945;28;20056;-86
2023/08/03 03:44:37;;;;;;;7.72;5.00;;;;;;;;;;4976116;28;20132;-87
2023/08/03 03:47:03;;;;;;;10.40;5.28;;;;;;;;;;5002738;28;20125;-86
2023/08/03 03:49:34;;;;;;;9.45;4.85;;;;;;;;;;5006301;28;20117;-87
2023/08/03 03:52:01;;;;;;;6.75;5.07;;;;;;;;;;4988919;28;20038;-87
2023/08/03 03:54:26;;;;;;;7.20;5.35;;;;;;;;;;4992297;28;20034;-86
2023/08/03 03:56:52;;;;;;;5.93;4.65;;;;;;;;;;5022924;28;20029;-86
2023/08/03 03:59:18;;;;;;;7.57;4.93;;;;;;;;;;5013780;28;20594;-87
2023/08/03 04:01:43;;;;;;;7.32;5.40;;;;;;;;;;5011499;28;20030;-87
2023/08/03 04:04:09;;;;;;;8.30;5.47;;;;;;;;;;5012998;28;20080;-87
2023/08/03 04:06:34;;;;;;;6.25;5.05;;;;;;;;;;5011545;28;20512;-86
2023/08/03 04:09:00;;;;;;;7.20;5.20;;;;;;;;;;5007644;28;20022;-87
2023/08/03 04:11:26;;;;;;;9.55;5.65;;;;;;;;;;5006296;28;20021;-87
2023/08/03 04:13:51;;;;;;;8.90;6.15;;;;;;;;;;5011245;28;20042;-87
2023/08/03 04:16:17;;;;;;;7.75;5.80;;;;;;;;;;4996553;28;20077;-87
2023/08/03 04:18:42;;;;;;;9.43;5.60;;;;;;;;;;5010945;28;20034;-87
2023/08/03 04:21:07;;;;;;;8.13;5.32;;;;;;;;;;5013237;28;20061;-87
2023/08/03 04:23:33;;;;;;;6.72;5.82;;;;;;;;;;5011581;28;20064;-87
2023/08/03 04:26:03;;;;;;;7.80;6.40;;;;;;;;;;5011719;28;20114;-87
2023/08/03 04:28:28;;;;;;;8.18;5.72;;;;;;;;;;5012198;28;20065;-87
2023/08/03 04:30:54;;;;;;;7.70;6.20;;;;;;;;;;4976825;28;20389;-87
2023/08/03 04:33:19;;;;;;;9.60;5.60;;;;;;;;;;5004978;28;20033;-87
2023/08/03 04:35:50;;;;;;;7.35;5.80;;;;;;;;;;5010575;28;20033;-87
2023/08/03 04:38:29;;;;;;;7.47;5.82;;;;;;;;;;4995926;28;20053;-88
2023/08/03 04:41:00;;;;;;;8.20;5.80;;;;;;;;;;5009073;28;20037;-90
2023/08/03 04:43:27;;;;;;;7.43;5.70;;;;;;;;;;4996875;28;20354;-86
2023/08/03 04:45:53;;;;;;;7.97;5.85;;;;;;;;;;4995435;28;20025;-87
2023/08/03 04:48:18;;;;;;;7.57;5.88;;;;;;;;;;4995536;28;20096;-86
2023/08/03 04:50:44;;;;;;;6.60;5.50;;;;;;;;;;5014125;28;20508;-85
2023/08/03 04:53:12;;;;;;;7.53;5.95;;;;;;;;;;4995595;28;20036;-88
2023/08/03 04:55:38;;;;;;;6.90;6.00;;;;;;;;;;5010999;28;20393;-85
2023/08/03 04:58:04;;;;;;;7.75;5.63;;;;;;;;;;5008664;28;20034;-84
2023/08/03 05:00:30;;;;;;;6.47;5.88;;;;;;;;;;5014698;28;20026;-85
2023/08/03 05:02:57;;;;;;;6.70;6.00;;;;;;;;;;5011405;28;20057;-85
2023/08/03 05:05:22;;;;;;;11.32;6.10;;;;;;;;;;5016096;28;20105;-86
2023/08/03 05:07:48;;;;;;;9.43;5.95;;;;;;;;;;5014878;28;20038;-83
2023/08/03 05:10:15;;;;;;;8.50;5.85;;;;;;;;;;5016986;28;20120;-86
2023/08/03 05:12:41;;;;;;;8.25;5.93;;;;;;;;;;5019132;28;20484;-85
2023/08/03 05:15:08;;;;;;;8.68;6.10;;;;;;;;;;5031567;28;20141;-85
2023/08/03 05:17:34;;;;;;;7.10;5.82;;;;;;;;;;5001150;28;20527;-83
2023/08/03 05:20:00;;;;;;;9.57;5.82;;;;;;;;;;5015332;28;20021;-85
2023/08/03 05:22:26;;;;;;;9.68;5.97;;;;;;;;;;5002758;28;20408;-85
2023/08/03 05:24:51;;;;;;;9.30;6.22;;;;;;;;;;5017903;28;20112;-86
2023/08/03 05:27:17;;;;;;;11.38;6.50;;;;;;;;;;4998900;28;20038;-83
2023/08/03 05:29:43;;;;;;;11.25;6.28;;;;;;;;;;5014959;28;20477;-86
2023/08/03 05:32:08;;;;;;;9.20;6.10;;;;;;;;;;5016298;28;20042;-87
2023/08/03 05:34:34;;;;;;;11.20;6.28;;;;;;;;;;5014486;28;20035;-88
2023/08/03 05:36:59;;;;;;;11.10;6.00;;;;;;;;;;5016066;28;20034;-88
2023/08/03 05:39:26;;;;;;;11.63;6.72;;;;;;;;;;5014281;28;20021;-86
2023/08/03 05:41:54;;;;;;;8.15;5.75;;;;;;;;;;4998428;28;20069;-86
2023/08/03 05:44:20;;;;;;;8.93;6.05;;;;;;;;;;5012652;28;20040;-86
2023/08/03 05:46:45;;;;;;;10.30;5.55;;;;;;;;;;5014197;28;20117;-87
2023/08/03 05:49:14;;;;;;;11.15;6.22;;;;;;;;;;5014398;28;20026;-86
2023/08/03 05:51:39;;;;;;;6.10;5.40;;;;;;;;;;5015601;28;20042;-86
2023/08/03 05:54:05;;;;;;;8.30;5.85;;;;;;;;;;5030660;28;20080;-86
2023/08/03 05:56:31;;;;;;;8.73;5.72;;;;;;;;;;5015527;28;20104;-86
2023/08/03 05:58:56;;;;;;;13.02;6.22;;;;;;;;;;5030560;28;20030;-86
2023/08/03 06:01:22;;;;;;;10.60;5.63;;;;;;;;;;5013442;28;20038;-86
2023/08/03 06:03:49;;;;;;;10.25;5.82;;;;;;;;;;5013965;28;20092;-84
2023/08/03 06:06:16;;;;;;;8.68;5.68;;;;;;;;;;5014805;28;20094;-86
2023/08/03 06:08:43;;;;;;;11.85;7.03;;;;;;;;;;5030344;28;20109;-86
2023/08/03 06:11:09;;;;;;;9.82;6.05;;;;;;;;;;4997872;28;20042;-86
2023/08/03 06:13:34;;;;;;;6.68;5.57;;;;;;;;;;5013751;28;20045;-86
2023/08/03 06:16:04;;;;;;;7.35;5.95;;;;;;;;;;5014804;28;20045;-87
2023/08/03 06:18:29;;;;;;;9.85;6.10;;;;;;;;;;5015076;28;20129;-86
2023/08/03 06:20:55;;;;;;;9.82;6.15;;;;;;;;;;5014849;28;20518;-86
2023/08/03 06:23:21;;;;;;;9.95;6.63;;;;;;;;;;5015761;28;20078;-85
2023/08/03 06:25:48;;;;;;;9.45;6.55;;;;;;;;;;5009387;28;20057;-86
2023/08/03 06:28:14;;;;;;;7.32;5.72;;;;;;;;;;5013879;28;20026;-85
2023/08/03 06:30:39;;;;;;;10.02;6.22;;;;;;;;;;5021818;28;20033;-85
2023/08/03 06:33:05;;;;;;;6.82;6.13;;;;;;;;;;5031318;28;20077;-86
2023/08/03 06:35:38;;;;;;;9.98;6.18;;;;;;;;;;4994224;28;20039;-87
2023/08/03 06:38:04;;;;;;;7.50;5.78;;;;;;;;;;5003158;28;20034;-86
2023/08/03 06:40:30;;;;;;;14.52;6.90;;;;;;;;;;5013685;28;20370;-85
2023/08/03 06:42:55;;;;;;;7.95;6.35;;;;;;;;;;5010996;28;20068;-85
2023/08/03 06:45:21;;;;;;;50.83;7.78;;;;;;;;;;5013420;28;20048;-85
2023/08/03 06:47:47;;;;;;;9.38;5.50;;;;;;;;;;5013951;28;20038;-85
2023/08/03 06:50:13;;;;;;;6.03;5.30;;;;;;;;;;5013441;28;20026;-84
2023/08/03 06:52:38;;;;;;;7.75;5.72;;;;;;;;;;5013107;28;20556;-85
2023/08/03 06:55:04;;;;;;;11.18;5.90;;;;;;;;;;4996665;28;20025;-85
2023/08/03 06:57:29;;;;;;;10.13;6.10;;;;;;;;;;5014824;28;20378;-85
2023/08/03 06:59:55;;;;;;;9.90;5.80;;;;;;;;;;5013929;28;20085;-84
2023/08/03 07:02:21;;;;;;;7.57;5.53;;;;;;;;;;5013383;28;20504;-86
2023/08/03 07:04:47;;;;;;;6.75;5.22;;;;;;;;;;5014410;28;20152;-85
2023/08/03 07:07:14;;;;;;;8.77;5.53;;;;;;;;;;5030022;28;20046;-85
2023/08/03 07:09:39;;;;;;;9.20;5.40;;;;;;;;;;5014458;28;20045;-84
2023/08/03 07:12:11;;;;;;;6.63;5.07;;;;;;;;;;5013191;28;20026;-84
2023/08/03 07:14:36;;;;;;;8.90;4.78;;;;;;;;;;5013282;28;20061;-85
2023/08/03 07:17:02;;;;;;;8.18;5.55;;;;;;;;;;5013248;28;20064;-84
2023/08/03 07:19:27;;;;;;;6.20;5.30;;;;;;;;;;5013688;28;20093;-84
2023/08/03 07:21:53;;;;;;;8.60;4.88;;;;;;;;;;5029630;28;20031;-85
2023/08/03 07:24:19;;;;;;;6.18;4.82;;;;;;;;;;4997439;28;20548;-86
2023/08/03 07:26:44;;;;;;;8.27;4.93;;;;;;;;;;5014081;28;20033;-86
2023/08/03 07:29:09;;;;;;;7.45;4.97;;;;;;;;;;5013031;28;20084;-85
2023/08/03 07:31:35;;;;;;;6.65;5.05;;;;;;;;;;5012997;28;20022;-84
2023/08/03 07:34:25;;;;;;;6.32;4.93;;;;;;;;;;5014558;28;20052;-84
2023/08/03 07:36:52;;;;;;;6.07;4.80;;;;;;;;;;5029108;28;20038;-84
2023/08/03 07:39:18;;;;;;;8.07;4.95;;;;;;;;;;5012097;28;20037;-85
2023/08/03 07:41:43;;;;;;;8.90;4.68;;;;;;;;;;5012626;28;20033;-84
2023/08/03 07:44:11;;;;;;;5.18;4.47;;;;;;;;;;5013132;28;20030;-85
2023/08/03 07:46:37;;;;;;;7.28;4.75;;;;;;;;;;5013285;28;20033;-85
2023/08/03 07:49:02;;;;;;;5.20;4.70;;;;;;;;;;5013142;28;20452;-86
2023/08/03 07:51:27;;;;;;;6.63;4.93;;;;;;;;;;4992346;28;20529;-83
2023/08/03 07:53:53;;;;;;;5.68;4.72;;;;;;;;;;5028048;28;20388;-84
2023/08/03 07:56:19;;;;;;;6.97;5.07;;;;;;;;;;5014135;28;20133;-84
2023/08/03 07:58:45;;;;;;;5.38;4.78;;;;;;;;;;4995952;28;20382;-84
2023/08/03 08:01:11;;;;;;;5.25;4.30;;;;;;;;;;5012420;28;20030;-85
2023/08/03 08:03:39;;;;;;;5.90;4.68;;;;;;;;;;5012865;28;20018;-85
2023/08/03 08:06:06;;;;;;;5.00;4.50;;;;;;;;;;4995434;28;20030;-85
2023/08/03 08:08:31;;;;;;;5.43;4.72;;;;;;;;;;5010857;28;20065;-85
2023/08/03 08:10:57;;;;;;;6.28;4.70;;;;;;;;;;5012369;28;20076;-83
2023/08/03 08:13:22;;;;;;;6.35;4.47;;;;;;;;;;5011610;28;20050;-85
2023/08/03 08:15:48;;;;;;;5.65;4.30;;;;;;;;;;5013888;28;20409;-84
2023/08/03 08:18:13;;;;;;;5.80;4.40;;;;;;;;;;4995758;28;20033;-84
2023/08/03 08:20:39;;;;;;;6.82;4.63;;;;;;;;;;4996539;28;20501;-85
2023/08/03 08:23:04;;;;;;;5.38;4.15;;;;;;;;;;5012478;28;20974;-84
2023/08/03 08:25:33;;;;;;;4.60;4.07;;;;;;;;;;4998625;28;20034;-84
2023/08/03 08:27:59;;;;;;;7.43;4.53;;;;;;;;;;5016354;28;20036;-84
2023/08/03 08:30:24;;;;;;;8.00;4.35;;;;;;;;;;5016269;28;20034;-85
2023/08/03 08:32:50;;;;;;;7.95;4.40;;;;;;;;;;5015455;28;20013;-84
2023/08/03 08:35:15;;;;;;;5.30;3.95;;;;;;;;;;5011588;28;20038;-84
2023/08/03 08:37:41;;;;;;;5.57;4.20;;;;;;;;;;5011261;28;20081;-83
2023/08/03 08:40:11;;;;;;;5.25;4.00;;;;;;;;;;5023837;28;20080;-86
2023/08/03 08:42:36;;;;;;;5.13;4.07;;;;;;;;;;5017341;28;20481;-84
2023/08/03 08:45:02;;;;;;;7.25;4.18;;;;;;;;;;5016705;28;20037;-84
2023/08/03 08:47:27;;;;;;;5.78;4.20;;;;;;;;;;5015818;28;20029;-85
2023/08/03 08:49:54;;;;;;;4.97;4.35;;;;;;;;;;5018439;28;20038;-85
2023/08/03 08:52:19;;;;;;;5.78;4.18;;;;;;;;;;5015907;28;20026;-85
2023/08/03 08:54:45;;;;;;;5.30;4.22;;;;;;;;;;5018106;28;20033;-84
2023/08/03 08:57:13;;;;;;;5.80;4.30;;;;;;;;;;5016653;28;20030;-83
2023/08/03 09:00:05;;;;;;;6.40;4.18;;;;;;;;;;5017310;28;20100;-84
2023/08/03 09:02:30;;;;;;;7.15;4.15;;;;;;;;;;5012044;28;20049;-83
2023/08/03 09:04:56;;;;;;;5.93;3.95;;;;;;;;;;5012107;28;20481;-85
2023/08/03 09:07:22;;;;;;;6.55;4.18;;;;;;;;;;4999321;28;20181;-85
2023/08/03 09:09:47;;;;;;;6.82;4.05;;;;;;;;;;5004507;28;20046;-85
2023/08/03 09:12:25;;;;;;;5.97;3.75;;;;;;;;;;5017592;28;20396;-84
2023/08/03 09:14:51;;;;;;;5.38;4.30;;;;;;;;;;5015227;28;20129;-87
2023/08/03 09:17:17;;;;;;;5.25;4.50;;;;;;;;;;5014617;28;20061;-84
2023/08/03 09:19:43;;;;;;;7.60;4.18;;;;;;;;;;5030980;28;20033;-85
2023/08/03 09:22:09;;;;;;;7.72;4.30;;;;;;;;;;5015011;28;20038;-85
2023/08/03 09:24:34;;;;;;;5.68;4.30;;;;;;;;;;5015807;28;20068;-84
2023/08/03 09:27:00;;;;;;;4.90;4.00;;;;;;;;;;4998224;28;20397;-86
2023/08/03 09:29:30;;;;;;;6.97;4.00;;;;;;;;;;5015599;28;20514;-85
2023/08/03 09:32:00;;;;;;;5.75;4.10;;;;;;;;;;5030651;28;20037;-85
2023/08/03 09:34:34;;;;;;;20.30;4.88;;;;;;;;;;5014990;28;20432;-84
2023/08/03 09:36:59;;;;;;;6.75;4.45;;;;;;;;;;5007782;28;20408;-85
2023/08/03 09:39:29;;;;;;;6.50;3.78;;;;;;;;;;5014432;28;20124;-84
2023/08/03 09:41:54;;;;;;;5.72;4.40;;;;;;;;;;5014512;28;20045;-84
2023/08/03 09:44:20;;;;;;;8.45;4.38;;;;;;;;;;5014384;28;20496;-83
2023/08/03 09:46:46;;;;;;;5.47;4.30;;;;;;;;;;5029911;28;20041;-85
2023/08/03 09:49:11;;;;;;;4.63;3.92;;;;;;;;;;5030666;28;20069;-84
2023/08/03 09:51:38;;;;;;;4.45;4.05;;;;;;;;;;5014319;28;20061;-84
2023/08/03 09:54:26;;;;;;;6.75;4.00;;;;;;;;;;5015557;28;20017;-83
2023/08/03 09:56:54;;;;;;;5.55;4.30;;;;;;;;;;5013620;28;20057;-84
2023/08/03 09:59:23;;;;;;;5.45;3.70;;;;;;;;;;5020136;28;20034;-86
2023/08/03 10:01:49;;;;;;;4.45;3.88;;;;;;;;;;5011549;28;20040;-86
2023/08/03 10:04:15;;;;;;;4.53;3.90;;;;;;;;;;5014055;28;20112;-85
2023/08/03 10:06:41;;;;;;;4.85;3.88;;;;;;;;;;5030403;28;20036;-85
2023/08/03 10:09:07;;;;;;;4.20;3.80;;;;;;;;;;5021088;28;20462;-84
2023/08/03 10:11:35;;;;;;;7.45;4.45;;;;;;;;;;5028534;28;20042;-86
2023/08/03 10:14:01;;;;;;;5.43;3.90;;;;;;;;;;5030281;28;20045;-85
2023/08/03 10:16:27;;;;;;;7.32;4.50;;;;;;;;;;5012492;28;20034;-85
2023/08/03 10:18:52;;;;;;;5.47;4.20;;;;;;;;;;5014599;28;20405;-85
2023/08/03 10:21:18;;;;;;;5.50;4.25;;;;;;;;;;5014737;28;20128;-84
2023/08/03 10:24:03;;;;;;;5.90;4.38;;;;;;;;;;5014526;28;20026;-84
2023/08/03 10:26:28;;;;;;;7.50;4.53;;;;;;;;;;5013553;28;20543;-84
2023/08/03 10:28:56;;;;;;;5.18;4.50;;;;;;;;;;5011994;28;20049;-84
2023/08/03 10:31:22;;;;;;;5.57;4.38;;;;;;;;;;5014626;28;20029;-85
2023/08/03 10:34:02;;;;;;;6.18;4.03;;;;;;;;;;5014416;28;20040;-84
2023/08/03 10:36:30;;;;;;;6.07;4.60;;;;;;;;;;5012994;28;20052;-83
2023/08/03 10:38:59;;;;;;;7.00;4.78;;;;;;;;;;5014187;28;20026;-83
2023/08/03 10:41:25;;;;;;;6.80;4.57;;;;;;;;;;5019695;28;20036;-84
2023/08/03 10:44:09;;;;;;;6.70;4.30;;;;;;;;;;5012743;28;21115;-83
2023/08/03 10:46:38;;;;;;;6.70;4.45;;;;;;;;;;5013723;28;20073;-85
2023/08/03 10:49:29;;;;;;;5.85;3.95;;;;;;;;;;5014430;28;20021;-84
2023/08/03 10:52:13;;;;;;;5.50;4.20;;;;;;;;;;5014442;28;20033;-85
2023/08/03 10:54:39;;;;;;;5.38;4.10;;;;;;;;;;4997132;28;20057;-85
2023/08/03 10:57:08;;;;;;;4.40;3.75;;;;;;;;;;5014254;28;20429;-85
2023/08/03 10:59:40;;;;;;;5.38;3.65;;;;;;;;;;5014817;28;20046;-85
2023/08/03 11:02:11;;;;;;;7.13;4.05;;;;;;;;;;5014045;28;20046;-86
2023/08/03 11:04:37;;;;;;;4.15;3.53;;;;;;;;;;5013005;28;20128;-83
2023/08/03 11:07:03;;;;;;;4.78;3.67;;;;;;;;;;5014572;28;20113;-83
2023/08/03 11:09:29;;;;;;;4.18;3.78;;;;;;;;;;5014627;28;20489;-85
2023/08/03 11:11:57;;;;;;;5.75;3.47;;;;;;;;;;5013448;28;20029;-84
2023/08/03 11:14:26;;;;;;;4.03;3.60;;;;;;;;;;5012421;28;20065;-85
2023/08/03 11:16:52;;;;;;;8.50;3.78;;;;;;;;;;5014455;28;20038;-84
2023/08/03 11:19:17;;;;;;;5.15;3.80;;;;;;;;;;5012637;28;20520;-84
2023/08/03 11:21:43;;;;;;;5.15;3.85;;;;;;;;;;5013627;28;20056;-84
2023/08/03 11:24:09;;;;;;;4.95;3.78;;;;;;;;;;5013701;28;20469;-84
2023/08/03 11:26:35;;;;;;;3.97;3.53;;;;;;;;;;5013122;28;20026;-84
2023/08/03 11:29:02;;;;;;;4.72;3.83;;;;;;;;;;4994310;28;20564;-84
2023/08/03 11:31:28;;;;;;;5.65;3.65;;;;;;;;;;5028428;28;20440;-84
2023/08/03 11:33:54;;;;;;;8.57;3.47;;;;;;;;;;5010616;28;20034;-84
2023/08/03 11:36:23;;;;;;;5.55;3.65;;;;;;;;;;5012116;28;20026;-84
2023/08/03 11:38:48;;;;;;;5.47;3.63;;;;;;;;;;4993709;28;20089;-84
2023/08/03 11:41:14;;;;;;;4.25;3.17;;;;;;;;;;5012641;28;20057;-84
2023/08/03 11:43:40;;;;;;;6.20;3.67;;;;;;;;;;4995277;28;20492;-84
2023/08/03 11:46:06;;;;;;;5.22;3.20;;;;;;;;;;5012130;28;20483;-84
2023/08/03 11:48:31;;;;;;;4.68;2.90;;;;;;;;;;4995176;28;20042;-84
2023/08/03 11:51:00;;;;;;;5.95;3.70;;;;;;;;;;5013186;28;20500;-84
2023/08/03 11:53:25;;;;;;;6.53;3.30;;;;;;;;;;5011729;28;20029;-84
2023/08/03 11:55:51;;;;;;;4.45;3.40;;;;;;;;;;5012027;28;20026;-82
2023/08/03 11:58:16;;;;;;;6.60;3.33;;;;;;;;;;5011717;28;20033;-82
2023/08/03 12:00:42;;;;;;;5.82;3.33;;;;;;;;;;4995460;28;20104;-82
2023/08/03 12:03:08;;;;;;;5.80;3.50;;;;;;;;;;5010905;28;20069;-84
2023/08/03 12:05:51;;;;;;;5.05;3.40;;;;;;;;;;5002656;28;20069;-84
2023/08/03 12:08:18;;;;;;;4.25;3.28;;;;;;;;;;5012851;28;20107;-84
2023/08/03 12:11:03;;;;;;;4.38;3.30;;;;;;;;;;5011653;28;20033;-84
2023/08/03 12:13:28;;;;;;;;;;;;;;;;;;5011351;28;20119;-84
2023/08/03 12:15:54;;;;;;;4.70;3.22;;;;;;;;;;5012709;28;20419;-84
2023/08/03 12:18:23;;;;;;;5.85;3.25;;;;;;;;;;5012709;28;20034;-84
2023/08/03 12:20:49;;;;;;;3.67;3.00;;;;;;;;;;5011095;28;20497;-84
2023/08/03 12:23:18;;;;;;;4.47;2.95;;;;;;;;;;5027754;28;20124;-84
2023/08/03 12:25:43;;;;;;;5.13;3.28;;;;;;;;;;4994804;28;20026;-84
2023/08/03 12:28:09;;;;;;;5.03;3.22;;;;;;;;;;5011289;28;20493;-86
2023/08/03 12:30:34;;;;;;;4.20;3.20;;;;;;;;;;5027487;28;20105;-83
2023/08/03 12:33:00;;;;;;;4.20;3.10;;;;;;;;;;5012589;28;20030;-83
2023/08/03 12:35:27;;;;;;;3.63;3.00;;;;;;;;;;5011659;28;20088;-83
2023/08/03 12:37:52;;;;;;;3.50;3.20;;;;;;;;;;5011129;28;20030;-83
2023/08/03 12:40:18;;;;;;;5.43;3.08;;;;;;;;;;5012562;28;20034;-85
2023/08/03 12:42:43;;;;;;;7.50;3.33;;;;;;;;;;5028148;28;20113;-82
2023/08/03 12:45:09;;;;;;;5.75;3.40;;;;;;;;;;5010998;28;20092;-83
2023/08/03 12:47:35;;;;;;;4.93;3.50;;;;;;;;;;5011191;28;20033;-83
2023/08/03 12:50:01;;;;;;;4.28;3.60;;;;;;;;;;5012166;28;20478;-83
2023/08/03 12:52:26;;;;;;;4.05;3.30;;;;;;;;;;5027597;28;20516;-85
2023/08/03 12:54:52;;;;;;;5.20;3.47;;;;;;;;;;5011053;28;20129;-84
2023/08/03 12:57:17;;;;;;;5.20;3.28;;;;;;;;;;5027526;28;20103;-84
2023/08/03 12:59:43;;;;;;;4.03;3.05;;;;;;;;;;5012148;28;20057;-84
2023/08/03 13:02:08;;;;;;;4.22;3.55;;;;;;;;;;5012396;28;20191;-84
2023/08/03 13:04:34;;;;;;;5.00;3.20;;;;;;;;;;5004279;28;20168;-83
2023/08/03 13:07:00;;;;;;;4.65;3.20;;;;;;;;;;5009389;28;20034;-84
2023/08/03 13:09:26;;;;;;;5.38;3.45;;;;;;;;;;5011223;28;20054;-84
2023/08/03 13:11:51;;;;;;;6.07;3.50;;;;;;;;;;5009025;28;20114;-84
2023/08/03 13:14:17;;;;;;;4.75;3.50;;;;;;;;;;5015528;28;20046;-84
2023/08/03 13:16:42;;;;;;;4.85;3.47;;;;;;;;;;5015774;28;20029;-84
2023/08/03 13:19:07;;;;;;;5.32;3.30;;;;;;;;;;5014344;28;20053;-84
2023/08/03 13:21:33;;;;;;;4.93;3.30;;;;;;;;;;5015756;28;20428;-84
2023/08/03 13:23:58;;;;;;;3.72;3.42;;;;;;;;;;5014328;28;20477;-85
2023/08/03 13:26:24;;;;;;;4.88;3.58;;;;;;;;;;5015490;28;20085;-84
2023/08/03 13:28:50;;;;;;;6.30;3.78;;;;;;;;;;5013997;28;20484;-84
2023/08/03 13:31:16;;;;;;;6.40;4.28;;;;;;;;;;5015487;28;20034;-85
2023/08/03 13:33:42;;;;;;;6.88;4.00;;;;;;;;;;5015541;28;20453;-84
2023/08/03 13:36:07;;;;;;;7.63;4.75;;;;;;;;;;5012987;28;20038;-84
2023/08/03 13:38:33;;;;;;;3.90;3.50;;;;;;;;;;5015398;28;20029;-84
2023/08/03 13:41:00;;;;;;;5.40;3.63;;;;;;;;;;4998114;28;20073;-84
2023/08/03 13:43:26;;;;;;;4.97;3.60;;;;;;;;;;5014103;28;20061;-84
2023/08/03 13:45:51;;;;;;;4.20;3.47;;;;;;;;;;5011394;28;20500;-85
2023/08/03 13:48:17;;;;;;;4.75;3.70;;;;;;;;;;5006218;28;20082;-85
2023/08/03 13:50:42;;;;;;;5.25;3.15;;;;;;;;;;5014852;28;20449;-84
2023/08/03 13:53:08;;;;;;;5.60;3.67;;;;;;;;;;5006427;28;20030;-84
2023/08/03 13:55:33;;;;;;;5.70;3.70;;;;;;;;;;5030346;28;20040;-84
2023/08/03 13:57:59;;;;;;;7.25;3.80;;;;;;;;;;5014946;28;20050;-85
2023/08/03 14:00:25;;;;;;;4.68;3.80;;;;;;;;;;5015241;28;20045;-84
2023/08/03 14:02:50;;;;;;;4.95;3.40;;;;;;;;;;4993591;28;20026;-84
2023/08/03 14:05:16;;;;;;;4.45;4.05;;;;;;;;;;5010852;28;20404;-85
2023/08/03 14:07:42;;;;;;;6.25;3.80;;;;;;;;;;5014481;28;20025;-84
2023/08/03 14:10:08;;;;;;;5.97;3.95;;;;;;;;;;5030267;28;20042;-84
2023/08/03 14:12:34;;;;;;;5.32;3.88;;;;;;;;;;5014684;28;20494;-84
2023/08/03 14:14:59;;;;;;;4.18;3.70;;;;;;;;;;5014089;28;20525;-84
2023/08/03 14:17:25;;;;;;;4.68;4.00;;;;;;;;;;5014740;28;20128;-84
2023/08/03 14:20:16;;;;;;;4.45;4.00;;;;;;;;;;5013859;28;20172;-84
2023/08/03 14:22:42;;;;;;;4.47;4.00;;;;;;;;;;5013525;28;20038;-84
2023/08/03 14:25:08;;;;;;;10.13;4.60;;;;;;;;;;5004049;28;20041;-84
2023/08/03 14:27:33;;;;;;;6.97;4.10;;;;;;;;;;5014441;28;20034;-84
2023/08/03 14:30:00;;;;;;;5.93;4.28;;;;;;;;;;4997464;28;20057;-84
2023/08/03 14:32:26;;;;;;;5.90;4.00;;;;;;;;;;5014165;28;20452;-84
2023/08/03 14:34:52;;;;;;;4.63;3.90;;;;;;;;;;5014457;28;20472;-83
2023/08/03 14:37:17;;;;;;;5.60;4.32;;;;;;;;;;5013130;28;20065;-86
2023/08/03 14:39:43;;;;;;;4.43;4.03;;;;;;;;;;5015100;28;20448;-84